Dennis J. Pasentine — WDF2813 — position and weather

sailwx.info

Track history (hours):
 
Tides and Currents Weather Stations Pressure Air Temp Water Temp Dewpoint Dewpoint Depression Visibility Wind Speed Wind Dir Waves Ship Positions

Dennis J. Pasentine

Owner: Florida Marine Transporters, Inc., Mandeville, LA. More information available from US FCC via Universal Licensing System and Coast Guard Vessel Documentation Center.

Last reported at 2017-Apr-08 22:36 UTC. Time now 2017-Jul-25 18:45 UTC.
Position N 32°01' W 091°04'.
Warning: this ship's position is months out of date.

Length 42 m.

Type: Towing. MMSI: 367432180.

Date/timePositionNaut miles runAvg speedWind from/ knotsBaromVisibWave heightAir tempDewpointWater temp
2017-Apr-08 22:36N 32°01' W 091°04'1 9.6
2017-Apr-08 22:30N 32°02' W 091°04'4 8.2
2017-Apr-08 21:58N 32°06' W 091°06'2 4.8
2017-Apr-08 21:30N 32°08' W 091°04'3 6.4
2017-Apr-08 21:00N 32°08' W 091°00'5 9.2
2017-Apr-08 20:30N 32°13' W 090°59'4 8.9
2017-Apr-08 20:00N 32°17' W 090°57'4 8.4
2017-Apr-08 19:30N 32°20' W 090°54'5 9.1
2017-Apr-08 19:00N 32°21' W 090°59'4 7.9
2017-Apr-08 18:30N 32°25' W 091°00'5 9.9
2017-Apr-08 18:00N 32°27' W 091°05'510.2
2017-Apr-08 17:28N 32°33' W 091°06'4 8.9
2017-Apr-08 17:00N 32°36' W 091°09'  
Track history (hours):
 
Tides and Currents Weather Stations Pressure Air Temp Water Temp Dewpoint Dewpoint Depression Visibility Wind Speed Wind Dir Waves Ship Positions

Dennis J. Pasentine

Owner: Florida Marine Transporters, Inc., Mandeville, LA. More information available from US FCC via Universal Licensing System and Coast Guard Vessel Documentation Center.

Last reported at 2017-Apr-08 22:36 UTC. Time now 2017-Jul-25 18:45 UTC.
Position N 32°01' W 091°04'.
Warning: this ship's position is months out of date.

Length 42 m.

Type: Towing. MMSI: 367432180.

Date/timePositionNaut miles runAvg speedWind from/ knotsBaromVisibWave heightAir tempDewpointWater temp
2017-Apr-08 22:36N 32°01' W 091°04'1 9.6
2017-Apr-08 22:30N 32°02' W 091°04'4 8.2
2017-Apr-08 21:58N 32°06' W 091°06'2 4.8
2017-Apr-08 21:30N 32°08' W 091°04'3 6.4
2017-Apr-08 21:00N 32°08' W 091°00'5 9.2
2017-Apr-08 20:30N 32°13' W 090°59'4 8.9
2017-Apr-08 20:00N 32°17' W 090°57'4 8.4
2017-Apr-08 19:30N 32°20' W 090°54'5 9.1
2017-Apr-08 19:00N 32°21' W 090°59'4 7.9
2017-Apr-08 18:30N 32°25' W 091°00'5 9.9
2017-Apr-08 18:00N 32°27' W 091°05'510.2
2017-Apr-08 17:28N 32°33' W 091°06'4 8.9
2017-Apr-08 17:00N 32°36' W 091°09'  

Dump ship's entire track history